• Join FlightAware (Why Join?)
  • Login
  • US Flag 
08:16PM EDT


 

Airport Tracker/Info


-or-


 

Live Flight TrackerFlight Track Log ✈ JZA7894 ✈ 13-May-2013 ✈ KCMH - CYYZ

Flight Track Log - Related Links

Times and Time Zones

All times are in EDT time to prevent confusion due to time zone crossing. See the JZA7894 flight status page for this flight to view local times or setup timezone preferences in your user account.

Time Position Orientation Groundspeed Altitude Reporting Facility
EDT Latitude Longitude Course Direction KTS MPH feet Rate Location/Type
10:13AM 40.0089 -82.9108 25° Northeast 131 151 1,700  Level Indianapolis Center
10:14AM 40.0458 -82.9178 352° North 131 151 3,000 1,260 Climbing Indianapolis Center
10:15AM 40.0772 -82.8886 35° Northeast 151 174 4,300 1,200 Climbing Indianapolis Center
10:15AM 40.0919 -82.8697 44° Northeast 142 163 4,800 840 Climbing Indianapolis Center
10:16AM 40.1347 -82.8397 28° Northeast 162 186 5,700 1,020 Climbing Indianapolis Center
10:17AM 40.1861 -82.7939 34° Northeast 188 216 7,000 1,440 Climbing Indianapolis Center
10:18AM 40.3741 -82.6089 25° Northeast  Level FlightAware Approximate
10:18AM 40.2219 -82.7625 34° Northeast 151 174 8,700  Level Indianapolis Center
10:19AM 40.2628 -82.7283 33° Northeast 171 197 9,500 780 Climbing Indianapolis Center
10:21AM 40.3069 -82.6894 34° Northeast 187 215 10,400 900 Climbing Indianapolis Center
10:22AM 40.3531 -82.6492 34° Northeast 195 224 11,400 1,080 Climbing Indianapolis Center
10:23AM 40.3983 -82.6103 33° Northeast 194 223 12,700 1,020 Climbing Indianapolis Center
10:24AM 40.4425 -82.5786 29° Northeast 184 212 13,600 960 Climbing Indianapolis Center
10:25AM 40.5019 -82.5539 18° North 189 217 14,800 1,020 Climbing Indianapolis Center
10:26AM 40.5511 -82.5289 21° North 189 217 15,800 540 Climbing Indianapolis Center
10:27AM 40.6044 -82.5058 18° North 197 227 16,000 120 Climbing Indianapolis Center
10:27AM 40.6369 -82.4903 20° North 197 227 16,000 480 Level Cleveland Center
10:28AM 40.6978 -82.4644 18° North 215 247 16,800 720 Climbing Cleveland Center
10:29AM 40.7547 -82.4361 21° North 215 247 17,500 600 Climbing Cleveland Center
10:30AM 40.8133 -82.4103 18° North 215 247 18,000 600 Climbing Cleveland Center
10:31AM 40.8722 -82.3844 18° North 215 247 18,700 480 Climbing Cleveland Center
10:32AM 40.9308 -82.3586 18° North 215 247 19,000 120 Climbing Cleveland Center
10:33AM 40.9939 -82.3300 19° North 230 265 19,000  Level Cleveland Center
10:34AM 41.0631 -82.2989 19° North 243 280 19,000  Level Cleveland Center
10:35AM 41.1303 -82.2675 19° North 252 290 19,000  Level Cleveland Center
10:36AM 41.1933 -82.2389 19° North 252 290 19,000  Level Cleveland Center
10:37AM 41.2625 -82.2075 19° North 252 290 19,000  Level Cleveland Center
10:38AM 41.3319 -82.1731 20° North 252 290 19,000  Level Cleveland Center
10:39AM 41.3992 -82.1389 21° North 252 290 19,000  Level Cleveland Center
10:40AM 41.4747 -82.0964 23° Northeast 257 296 19,000  Level Cleveland Center
10:41AM 41.5419 -82.0533 26° Northeast 257 296 19,000  Level Cleveland Center
10:42AM 41.6111 -82.0161 22° Northeast 257 296 19,000  Level Cleveland Center
10:43AM 41.6764 -81.9731 26° Northeast 257 296 19,000  Level Cleveland Center
10:44AM 41.7456 -81.9328 23° Northeast 257 296 19,000  Level Cleveland Center
10:45AM 41.8150 -81.8925 23° Northeast 257 296 19,000  Level Cleveland Center
10:46AM 41.8819 -81.8522 24° Northeast 257 296 19,000  Level Cleveland Center
10:47AM 41.9428 -81.8169 23° Northeast 257 296 19,000  Level Cleveland Center
10:48AM 42.0100 -81.7736 26° Northeast 257 296 19,000  Level Cleveland Center
10:49AM 42.0792 -81.7358 22° Northeast 257 296 19,000  Level Cleveland Center
10:50AM 42.1464 -81.6950 24° Northeast 257 296 19,000  Level Cleveland Center
10:51AM 42.2133 -81.6542 24° Northeast 257 296 19,000  Level Cleveland Center
10:52AM 42.2825 -81.6131 24° Northeast 257 296 19,000  Level Cleveland Center
10:53AM 42.3581 -81.5667 24° Northeast 257 296 19,000  Level Cleveland Center
10:54AM 42.4250 -81.5256 24° Northeast 257 296 19,000  Level Cleveland Center
10:55AM 42.4922 -81.4842 24° Northeast 257 296 19,000  Level Cleveland Center
10:56AM 42.5611 -81.4428 24° Northeast 257 296 19,000  Level Cleveland Center
10:57AM 42.6303 -81.4017 24° Northeast 257 296 19,000  Level Cleveland Center
10:58AM 42.6972 -81.3600 25° Northeast 257 296 19,000  Level Cleveland Center
10:59AM 42.7664 -81.3214 22° Northeast 257 296 19,000  Level Cleveland Center
11:01AM 42.8667 -81.2000 42° Northeast 270 311 19,000  Level Toronto Center
11:02AM 42.9167 -81.1333 44° Northeast 280 322 19,000  Level Toronto Center
11:03AM 42.9667 -81.0500 51° Northeast 280 322 19,000  Level Toronto Center
11:04AM 43.0167 -80.9833 44° Northeast 280 322 19,000 -300 Level Toronto Center
11:05AM 43.0667 -80.9167 44° Northeast 280 322 18,500 -720 Descending Toronto Center
11:06AM 43.1167 -80.8167 56° Northeast 300 345 17,600 -1,020 Descending Toronto Center
11:07AM 43.2000 -80.7500 30° Northeast 290 334 16,500 -1,140 Descending Toronto Center
11:08AM 43.2500 -80.6667 51° Northeast 280 322 15,400 -1,140 Descending Toronto Center
11:09AM 43.3000 -80.6000 44° Northeast 280 322 14,300 -1,140 Descending Toronto Center
11:10AM 43.3500 -80.5000 55° Northeast 270 311 13,200 -1,200 Descending Toronto Center
11:11AM 43.4000 -80.4333 44° Northeast 280 322 12,000 -1,200 Descending Toronto Center
11:12AM 43.4500 -80.3500 50° Northeast 270 311 10,800 -1,140 Descending Toronto Center
11:13AM 43.4833 -80.2500 65° Northeast 270 311 9,800 -840 Descending Toronto Center
11:14AM 43.5000 -80.1667 75° East 260 299 9,200 -420 Descending Toronto Center
11:15AM 43.5333 -80.0667 65° Northeast 250 288 9,000 -120 Descending Toronto Center
11:16AM 43.5500 -80.0000 71° East 240 276 9,000  Level Toronto Center
11:17AM 43.5667 -79.9167 75° East 240 276 9,000  Level Toronto Center
11:18AM 43.5833 -79.8167 77° East 240 276 9,000  Level Toronto Center
11:19AM 43.5833 -79.7333 90° East 250 288 9,000  Level Toronto Center
11:20AM 43.5833 -79.6167 90° East 250 288 9,000 -360 Level Toronto Center
11:21AM 43.5833 -79.5167 90° East 250 288 8,300 -1,020 Descending Toronto Center
11:22AM 43.6333 -79.4500 44° Northeast 230 265 7,000 -1,020 Descending Toronto Center
11:23AM 43.6667 -79.4000 47° Northeast 230 265 6,300 -960 Descending Toronto Center
11:24AM 43.7167 -79.3333 44° Northeast 220 253 5,100 -1,500 Descending Toronto Center
11:25AM 43.7667 -79.3500 346° North 190 219 3,400 -1,080 Descending Toronto Center
11:26AM 43.7667 -79.4333 270° West 180 207 3,000 -420 Descending Toronto Center
11:27AM 43.7333 -79.4667 216° Southwest 170 196 2,600 -720 Descending Toronto Center
11:28AM 43.7000 -79.5167 227° Southwest 160 184 1,600 -840 Descending Toronto Center
11:29AM 43.6833 -79.5667 245° Southwest 130 150 1,000 -600 Descending Toronto Center